Map

Track Data

SID SEASON NUMBER BASIN SUBBASIN NAME ISO_TIME NATURE LAT LON WMO_WIND WMO_PRES WMO_AGENCY TRACK_TYPE DIST2LAND LANDFALL IFLAG USA_AGENCY USA_ATCF_ID USA_LAT USA_LON USA_RECORD USA_STATUS USA_WIND USA_PRES USA_SSHS USA_R34_NE USA_R34_SE USA_R34_SW USA_R34_NW USA_R50_NE USA_R50_SE USA_R50_SW USA_R50_NW USA_R64_NE USA_R64_SE USA_R64_SW USA_R64_NW USA_POCI USA_ROCI USA_RMW USA_EYE TOKYO_LAT TOKYO_LON TOKYO_GRADE TOKYO_WIND TOKYO_PRES TOKYO_R50_DIR TOKYO_R50_LONG TOKYO_R50_SHORT TOKYO_R30_DIR TOKYO_R30_LONG TOKYO_R30_SHORT TOKYO_LAND CMA_LAT CMA_LON CMA_CAT CMA_WIND CMA_PRES HKO_LAT HKO_LON HKO_CAT HKO_WIND HKO_PRES NEWDELHI_LAT NEWDELHI_LON NEWDELHI_GRADE NEWDELHI_WIND NEWDELHI_PRES NEWDELHI_CI NEWDELHI_DP NEWDELHI_POCI REUNION_LAT REUNION_LON REUNION_TYPE REUNION_WIND REUNION_PRES REUNION_TNUM REUNION_CI REUNION_RMW REUNION_R34_NE REUNION_R34_SE REUNION_R34_SW REUNION_R34_NW REUNION_R50_NE REUNION_R50_SE REUNION_R50_SW REUNION_R50_NW REUNION_R64_NE REUNION_R64_SE REUNION_R64_SW REUNION_R64_NW BOM_LAT BOM_LON BOM_TYPE BOM_WIND BOM_PRES BOM_TNUM BOM_CI BOM_RMW BOM_R34_NE BOM_R34_SE BOM_R34_SW BOM_R34_NW BOM_R50_NE BOM_R50_SE BOM_R50_SW BOM_R50_NW BOM_R64_NE BOM_R64_SE BOM_R64_SW BOM_R64_NW BOM_ROCI BOM_POCI BOM_EYE BOM_POS_METHOD BOM_PRES_METHOD NADI_LAT NADI_LON NADI_CAT NADI_WIND NADI_PRES WELLINGTON_LAT WELLINGTON_LON WELLINGTON_WIND WELLINGTON_PRES DS824_LAT DS824_LON DS824_STAGE DS824_WIND DS824_PRES TD9636_LAT TD9636_LON TD9636_STAGE TD9636_WIND TD9636_PRES TD9635_LAT TD9635_LON TD9635_WIND TD9635_PRES TD9635_ROCI NEUMANN_LAT NEUMANN_LON NEUMANN_CLASS NEUMANN_WIND NEUMANN_PRES MLC_LAT MLC_LON MLC_CLASS MLC_WIND MLC_PRES USA_GUST BOM_GUST BOM_GUST_PER REUNION_GUST REUNION_GUST_PER USA_SEAHGT USA_SEARAD_NE USA_SEARAD_SE USA_SEARAD_SW USA_SEARAD_NW STORM_SPEED STORM_DIR
1941277N21298 1941 64 NA NA NOT_NAMED 1941-10-03 18:00:00 TS 21.2000 -62.4000 40 hurdat_atl main 458 445 O_____________ hurdat_atl AL051941 21.2000 -62.4000 TS 40 0 18 306
1941277N21298 1941 64 NA NA NOT_NAMED 1941-10-03 21:00:00 TS 21.7408 -63.1985 main 446 446 P_____________ AL051941 21.7408 -63.1985 TS 45 0 18 304
1941277N21298 1941 64 NA NA NOT_NAMED 1941-10-04 00:00:00 TS 22.2000 -64.0000 50 hurdat_atl main 456 452 O_____________ hurdat_atl AL051941 22.2000 -64.0000 TS 50 0 17 298
1941277N21298 1941 64 NA NA NOT_NAMED 1941-10-04 03:00:00 TS 22.5296 -64.8008 main 466 466 P_____________ AL051941 22.5296 -64.8008 TS 52 0 16 292
1941277N21298 1941 64 NA NA NOT_NAMED 1941-10-04 06:00:00 TS 22.8000 -65.6000 55 hurdat_atl main 492 492 O_____________ hurdat_atl AL051941 22.8000 -65.6000 TS 55 0 16 292
1941277N21298 1941 64 NA NA NOT_NAMED 1941-10-04 09:00:00 TS 23.1295 -66.3923 main 520 506 P_____________ AL051941 23.1295 -66.3923 TS 60 0 16 292
1941277N21298 1941 64 NA NA NOT_NAMED 1941-10-04 12:00:00 TS 23.4000 -67.2000 65 hurdat_atl main 507 482 O_____________ hurdat_atl AL051941 23.4000 -67.2000 HU 65 1 16 285
1941277N21298 1941 64 NA NA NOT_NAMED 1941-10-04 15:00:00 TS 23.5298 -68.0506 main 478 459 P_____________ AL051941 23.5298 -68.0506 HU 70 1 16 277
1941277N21298 1941 64 NA NA NOT_NAMED 1941-10-04 18:00:00 TS 23.6000 -68.9000 75 hurdat_atl main 459 439 O_____________ hurdat_atl AL051941 23.6000 -68.9000 HU 75 1 15 277
1941277N21298 1941 64 NA NA NOT_NAMED 1941-10-04 21:00:00 TS 23.7070 -69.7075 main 439 387 P_____________ AL051941 23.7070 -69.7075 HU 80 1 15 278
1941277N21298 1941 64 NA NA NOT_NAMED 1941-10-05 00:00:00 TS 23.8000 -70.5000 85 hurdat_atl main 387 344 O_____________ hurdat_atl AL051941 23.8000 -70.5000 HU 85 2 15 276
1941277N21298 1941 64 NA NA NOT_NAMED 1941-10-05 03:00:00 TS 23.8572 -71.3077 main 348 315 P_____________ AL051941 23.8572 -71.3077 HU 90 2 15 274
1941277N21298 1941 64 NA NA NOT_NAMED 1941-10-05 06:00:00 TS 23.9000 -72.1000 95 hurdat_atl main 315 302 O_____________ hurdat_atl AL051941 23.9000 -72.1000 HU 95 2 14 273
1941277N21298 1941 64 NA NA NOT_NAMED 1941-10-05 09:00:00 TS 23.9417 -72.8353 main 302 301 P_____________ AL051941 23.9417 -72.8353 HU 100 3 14 274
1941277N21298 1941 64 NA NA NOT_NAMED 1941-10-05 12:00:00 TS 24.0000 -73.6000 105 hurdat_atl main 315 315 O_____________ hurdat_atl AL051941 24.0000 -73.6000 HU 105 3 15 275
1941277N21298 1941 64 NA NA NOT_NAMED 1941-10-05 15:00:00 TS 24.0772 -74.4703 main 327 245 P_____________ AL051941 24.0772 -74.4703 HU 105 3 17 277
1941277N21298 1941 64 NA NA NOT_NAMED 1941-10-05 18:00:00 TS 24.2000 -75.4000 105 962 hurdat_atl main 235 142 O_____________ hurdat_atl AL051941 24.2000 -75.4000 HU 105 962 3 17 280
1941277N21298 1941 64 NA NA NOT_NAMED 1941-10-05 21:00:00 TS 24.3772 -76.3501 main 131 51 P_____________ AL051941 24.3772 -76.3501 HU 100 3 18 283
1941277N21298 1941 64 NA NA NOT_NAMED 1941-10-06 00:00:00 TS 24.6000 -77.3000 95 hurdat_atl main 41 0 O_____________ hurdat_atl AL051941 24.6000 -77.3000 HU 95 2 18 285
1941277N21298 1941 64 NA NA NOT_NAMED 1941-10-06 03:00:00 TS 24.8334 -78.2210 main 0 0 P_____________ AL051941 24.8334 -78.2210 HU 90 2 17 287
1941277N21298 1941 64 NA NA NOT_NAMED 1941-10-06 06:00:00 TS 25.1000 -79.1000 85 hurdat_atl main 82 32 O_____________ hurdat_atl AL051941 25.1000 -79.1000 HU 85 2 17 291
1941277N21298 1941 64 NA NA NOT_NAMED 1941-10-06 09:00:00 TS 25.4475 -80.0126 main 32 10 P_____________ AL051941 25.4475 -80.0126 HU 85 2 16 292
1941277N21298 1941 64 NA NA NOT_NAMED 1941-10-06 10:00:00 TS 25.5000 -80.2000 85 hurdat_atl main 10 0 O_____________ hurdat_atl AL051941 25.5000 -80.2000 L HU 85 2 8 281
1941277N21298 1941 64 NA NA NOT_NAMED 1941-10-06 11:00:00 TS 25.5000 -80.3000 85 hurdat_atl main 0 0 O_____________ hurdat_atl AL051941 25.5000 -80.3000 L HU 85 2 17 290
1941277N21298 1941 64 NA NA NOT_NAMED 1941-10-06 12:00:00 TS 25.7000 -80.8000 75 hurdat_atl main 0 0 O_____________ hurdat_atl AL051941 25.7000 -80.8000 HU 75 1 23 297
1941277N21298 1941 64 NA GM NOT_NAMED 1941-10-06 15:00:00 TS 26.2073 -81.8088 main 0 0 P_____________ AL051941 26.2073 -81.8088 HU 67 1 18 305
1941277N21298 1941 64 NA GM NOT_NAMED 1941-10-06 18:00:00 TS 26.7000 -82.4000 60 997 hurdat_atl main 14 14 O_____________ hurdat_atl AL051941 26.7000 -82.4000 TS 60 997 0 16 314
1941277N21298 1941 64 NA GM NOT_NAMED 1941-10-06 21:00:00 TS 27.3347 -83.1025 main 49 49 P_____________ AL051941 27.3347 -83.1025 TS 65 993 1 17 318
1941277N21298 1941 64 NA GM NOT_NAMED 1941-10-07 00:00:00 TS 28.0000 -83.7000 70 hurdat_atl main 79 79 I_____________ hurdat_atl AL051941 28.0000 -83.7000 HU 70 989 1 16 321
1941277N21298 1941 64 NA GM NOT_NAMED 1941-10-07 03:00:00 TS 28.5863 -84.2693 main 133 62 P_____________ AL051941 28.5863 -84.2693 HU 75 985 1 14 327
1941277N21298 1941 64 NA GM NOT_NAMED 1941-10-07 06:00:00 TS 29.2000 -84.6000 80 982 hurdat_atl main 62 0 O_____________ hurdat_atl AL051941 29.2000 -84.6000 HU 80 982 1 14 348
1941277N21298 1941 64 NA GM NOT_NAMED 1941-10-07 09:00:00 TS 29.9000 -84.6000 80 982 hurdat_atl main 0 0 O_____________ hurdat_atl AL051941 29.9000 -84.6000 L HU 80 982 1 11 0
1941277N21298 1941 64 NA NA NOT_NAMED 1941-10-07 12:00:00 TS 30.3000 -84.6000 70 hurdat_atl main 0 0 O_____________ hurdat_atl AL051941 30.3000 -84.6000 HU 70 1 10 9
1941277N21298 1941 64 NA NA NOT_NAMED 1941-10-07 15:00:00 TS 30.8396 -84.4353 main 0 0 P_____________ AL051941 30.8396 -84.4353 HU 65 1 12 21
1941277N21298 1941 64 NA NA NOT_NAMED 1941-10-07 18:00:00 TS 31.4000 -84.1000 60 hurdat_atl main 0 0 O_____________ hurdat_atl AL051941 31.4000 -84.1000 TS 60 0 12 33
1941277N21298 1941 64 NA NA NOT_NAMED 1941-10-07 21:00:00 TS 31.8521 -83.6750 main 0 0 P_____________ AL051941 31.8521 -83.6750 TS 52 0 12 47
1941277N21298 1941 64 NA NA NOT_NAMED 1941-10-08 00:00:00 TS 32.2000 -83.1000 45 hurdat_atl main 0 0 O_____________ hurdat_atl AL051941 32.2000 -83.1000 TS 45 0 12 62
1941277N21298 1941 64 NA NA NOT_NAMED 1941-10-08 03:00:00 TS 32.4301 -82.3868 main 0 0 P_____________ AL051941 32.4301 -82.3868 TS 42 0 13 72
1941277N21298 1941 64 NA NA NOT_NAMED 1941-10-08 06:00:00 TS 32.6000 -81.6000 40 hurdat_atl main 0 0 O_____________ hurdat_atl AL051941 32.6000 -81.6000 TS 40 0 14 73
1941277N21298 1941 64 NA NA NOT_NAMED 1941-10-08 09:00:00 TS 32.8375 -80.8207 main 0 0 P_____________ AL051941 32.8375 -80.8207 TS 37 0 13 72
1941277N21298 1941 64 NA NA NOT_NAMED 1941-10-08 12:00:00 TS 33.0000 -80.1000 35 1004 hurdat_atl main 0 0 O_____________ hurdat_atl AL051941 33.0000 -80.1000 TS 35 1004 0 11 81
1941277N21298 1941 64 NA NA NOT_NAMED 1941-10-08 15:00:00 TS 33.0091 -79.5347 main 0 0 P_____________ AL051941 33.0091 -79.5347 TS 37 0 9 96
1941277N21298 1941 64 NA NA NOT_NAMED 1941-10-08 18:00:00 TS 32.9000 -79.0000 40 hurdat_atl main 38 38 O_____________ hurdat_atl AL051941 32.9000 -79.0000 TS 40 0 10 106
1941277N21298 1941 64 NA NA NOT_NAMED 1941-10-08 21:00:00 TS 32.7299 -78.3649 main 93 93 P_____________ AL051941 32.7299 -78.3649 TS 45 0 12 110
1941277N21298 1941 64 NA NA NOT_NAMED 1941-10-09 00:00:00 TS 32.5000 -77.7000 50 hurdat_atl main 158 158 O_____________ hurdat_atl AL051941 32.5000 -77.7000 TS 50 0 12 112
1941277N21298 1941 64 NA NA NOT_NAMED 1941-10-09 03:00:00 TS 32.2798 -77.0431 main 201 201 P_____________ AL051941 32.2798 -77.0431 TS 50 0 12 114
1941277N21298 1941 64 NA NA NOT_NAMED 1941-10-09 06:00:00 TS 32.0000 -76.4000 50 hurdat_atl main 259 259 O_____________ hurdat_atl AL051941 32.0000 -76.4000 TS 50 0 13 121
1941277N21298 1941 64 NA NA NOT_NAMED 1941-10-09 09:00:00 TS 31.6227 -75.7395 main 334 334 P_____________ AL051941 31.6227 -75.7395 TS 50 0 13 128
1941277N21298 1941 64 NA NA NOT_NAMED 1941-10-09 12:00:00 TS 31.2000 -75.2000 50 hurdat_atl main 399 399 O_____________ hurdat_atl AL051941 31.2000 -75.2000 TS 50 0 11 139
1941277N21298 1941 64 NA NA NOT_NAMED 1941-10-09 15:00:00 TS 30.7920 -74.8907 main 451 451 P_____________ AL051941 30.7920 -74.8907 TS 50 0 9 152
1941277N21298 1941 64 NA NA NOT_NAMED 1941-10-09 18:00:00 TS 30.4000 -74.7000 50 hurdat_atl main 498 498 O_____________ hurdat_atl AL051941 30.4000 -74.7000 TS 50 0 9 154
1941277N21298 1941 64 NA NA NOT_NAMED 1941-10-09 21:00:00 TS 30.0050 -74.4398 main 551 551 P_____________ AL051941 30.0050 -74.4398 TS 50 0 8 154
1941277N21298 1941 64 NA NA NOT_NAMED 1941-10-10 00:00:00 TS 29.7000 -74.3000 50 hurdat_atl main 584 584 O_____________ hurdat_atl AL051941 29.7000 -74.3000 TS 50 0 5 174
1941277N21298 1941 64 NA NA NOT_NAMED 1941-10-10 03:00:00 TS 29.5475 -74.3978 main 596 583 P_____________ AL051941 29.5475 -74.3978 TS 50 0 3 233
1941277N21298 1941 64 NA NA NOT_NAMED 1941-10-10 06:00:00 TS 29.5000 -74.6000 50 hurdat_atl main 583 564 O_____________ hurdat_atl AL051941 29.5000 -74.6000 TS 50 0 4 260
1941277N21298 1941 64 NA NA NOT_NAMED 1941-10-10 09:00:00 TS 29.4850 -74.7949 main 564 555 P_____________ AL051941 29.4850 -74.7949 TS 50 0 3 270
1941277N21298 1941 64 NA NA NOT_NAMED 1941-10-10 12:00:00 TS 29.5000 -74.9000 50 hurdat_atl main 555 555 O_____________ hurdat_atl AL051941 29.5000 -74.9000 TS 50 0 0 270
1941277N21298 1941 64 NA NA NOT_NAMED 1941-10-10 15:00:00 TS 29.4847 -74.8473 main 564 564 P_____________ AL051941 29.4847 -74.8473 TS 50 0 3 90
1941277N21298 1941 64 NA NA NOT_NAMED 1941-10-10 18:00:00 TS 29.5000 -74.6000 50 hurdat_atl main 583 583 O_____________ hurdat_atl AL051941 29.5000 -74.6000 TS 50 0 6 77
1941277N21298 1941 64 NA NA NOT_NAMED 1941-10-10 21:00:00 TS 29.6149 -74.1831 main 598 598 P_____________ AL051941 29.6149 -74.1831 TS 50 0 9 77
1941277N21298 1941 64 NA NA NOT_NAMED 1941-10-11 00:00:00 TS 29.7000 -73.6000 50 hurdat_atl main 620 620 O_____________ hurdat_atl AL051941 29.7000 -73.6000 TS 50 0 11 89
1941277N21298 1941 64 NA NA NOT_NAMED 1941-10-11 03:00:00 TS 29.6294 -72.9671 main 656 656 P_____________ AL051941 29.6294 -72.9671 TS 50 0 12 99
1941277N21298 1941 64 NA NA NOT_NAMED 1941-10-11 06:00:00 TS 29.5000 -72.2000 50 hurdat_atl main 706 706 O_____________ hurdat_atl AL051941 29.5000 -72.2000 TS 50 0 15 99
1941277N21298 1941 64 NA NA NOT_NAMED 1941-10-11 09:00:00 TS 29.3852 -71.2796 main 767 767 P_____________ AL051941 29.3852 -71.2796 TS 47 0 17 97
1941277N21298 1941 64 NA NA NOT_NAMED 1941-10-11 12:00:00 TS 29.3000 -70.3000 45 hurdat_atl main 838 838 O_____________ hurdat_atl AL051941 29.3000 -70.3000 TS 45 0 17 94
1941277N21298 1941 64 NA NA NOT_NAMED 1941-10-11 15:00:00 TS 29.2773 -69.3628 main 899 899 P_____________ AL051941 29.2773 -69.3628 TS 45 0 16 90
1941277N21298 1941 64 NA NA NOT_NAMED 1941-10-11 18:00:00 TS 29.3000 -68.5000 45 hurdat_atl main 962 962 O_____________ hurdat_atl AL051941 29.3000 -68.5000 TS 45 0 14 87
1941277N21298 1941 64 NA NA NOT_NAMED 1941-10-11 21:00:00 TS 29.3415 -67.7776 main 1013 1013 P_____________ AL051941 29.3415 -67.7776 TS 45 0 12 85
1941277N21298 1941 64 NA NA NOT_NAMED 1941-10-12 00:00:00 TS 29.4000 -67.1000 45 hurdat_atl main 1059 1059 O_____________ hurdat_atl AL051941 29.4000 -67.1000 TS 45 0 12 85
1941277N21298 1941 64 NA NA NOT_NAMED 1941-10-12 03:00:00 TS 29.4422 -66.3573 main 1109 1109 P_____________ AL051941 29.4422 -66.3573 TS 42 0 13 86
1941277N21298 1941 64 NA NA NOT_NAMED 1941-10-12 06:00:00 TS 29.5000 -65.6000 40 hurdat_atl main 1160 1160 O_____________ hurdat_atl AL051941 29.5000 -65.6000 TS 40 0 13 85
1941277N21298 1941 64 NA NA NOT_NAMED 1941-10-12 09:00:00 TS 29.5545 -64.8566 main 1206 1206 P_____________ AL051941 29.5545 -64.8566 TS 40 0 13 81
1941277N21298 1941 64 NA NA NOT_NAMED 1941-10-12 12:00:00 ET 29.7000 -64.1000 40 hurdat_atl main 1261 1261 O_____________ hurdat_atl AL051941 29.7000 -64.1000 EX 40 -4 14 72
1941277N21298 1941 64 NA NA NOT_NAMED 1941-10-12 15:00:00 ET 29.9819 -63.3219 main 1306 1306 P_____________ AL051941 29.9819 -63.3219 EX 40 -4 16 63
1941277N21298 1941 64 NA NA NOT_NAMED 1941-10-12 18:00:00 ET 30.4000 -62.5000 40 hurdat_atl main 1348 1348 O_____________ hurdat_atl AL051941 30.4000 -62.5000 EX 40 -4 17 58
1941277N21298 1941 64 NA NA NOT_NAMED 1941-10-12 21:00:00 ET 30.8819 -61.6285 main 1397 1393 P_____________ AL051941 30.8819 -61.6285 EX 40 -4 19 55
1941277N21298 1941 64 NA NA NOT_NAMED 1941-10-13 00:00:00 ET 31.5000 -60.7000 40 hurdat_atl main 1395 1346 O_____________ hurdat_atl AL051941 31.5000 -60.7000 EX 40 -4 21 50
1941277N21298 1941 64 NA NA NOT_NAMED 1941-10-13 03:00:00 ET 32.2393 -59.7284 main 1349 1297 P_____________ AL051941 32.2393 -59.7284 EX 37 -4 23 47
1941277N21298 1941 64 NA NA NOT_NAMED 1941-10-13 06:00:00 ET 33.1000 -58.7000 35 hurdat_atl main 1291 1243 O_____________ hurdat_atl AL051941 33.1000 -58.7000 EX 35 -4 25 45
1941277N21298 1941 64 NA NA NOT_NAMED 1941-10-13 09:00:00 ET 34.0189 -57.6351 main 1248 1207 P_____________ AL051941 34.0189 -57.6351 EX 35 -4 26 44
1941277N21298 1941 64 NA NA NOT_NAMED 1941-10-13 12:00:00 ET 35.0000 -56.5000 35 hurdat_atl main 1199 1140 O_____________ hurdat_atl AL051941 35.0000 -56.5000 EX 35 -4 28 44
1941277N21298 1941 64 NA NA NOT_NAMED 1941-10-13 15:00:00 ET 36.0004 -55.2818 main 1133 1079 P_____________ AL051941 36.0004 -55.2818 EX 35 -4 28 45
1941277N21298 1941 64 NA NA NOT_NAMED 1941-10-13 18:00:00 ET 37.0000 -54.0000 35 hurdat_atl main 1068 O_____________ hurdat_atl AL051941 37.0000 -54.0000 EX 35 -4 29 46

About IBTrACS Database

This database is a web-friendly format of International Best Track Archive for Climate Stewardship (IBTrACS), a global best track data archive curated by NOAA dating back to 1842.

Updated: 2021-10-27